createdAt,value
2019-03-22T00:02:43.022Z,0.0
2019-03-22T00:13:46.240Z,0.0
2019-03-22T00:24:06.530Z,0.0
2019-03-22T00:34:42.284Z,0.0
2019-03-22T00:45:58.283Z,0.0
2019-03-22T00:57:28.494Z,0.0
2019-03-22T01:08:12.611Z,0.0
2019-03-22T01:18:37.600Z,0.0
2019-03-22T01:28:51.320Z,0.0
2019-03-22T01:39:05.100Z,0.0
2019-03-22T01:49:27.910Z,0.0
2019-03-22T01:59:41.287Z,0.0
2019-03-22T02:09:55.577Z,0.0
2019-03-22T02:21:15.402Z,0.0
2019-03-22T02:32:02.428Z,0.0
2019-03-22T02:42:38.115Z,0.0
2019-03-22T02:53:26.736Z,0.0
2019-03-22T03:03:38.265Z,0.0
2019-03-22T03:14:23.855Z,0.0
2019-03-22T03:24:52.402Z,0.0
2019-03-22T03:35:06.470Z,0.0
2019-03-22T03:45:18.508Z,0.0
2019-03-22T03:55:32.053Z,0.0
2019-03-22T04:06:02.070Z,0.0
2019-03-22T04:16:47.627Z,0.0
2019-03-22T04:27:01.180Z,0.0
2019-03-22T04:37:54.034Z,0.0
2019-03-22T04:48:14.773Z,0.0
2019-03-22T04:58:33.796Z,0.0
2019-03-22T05:08:49.053Z,4.0
2019-03-22T05:19:04.531Z,20.0
2019-03-22T05:29:29.873Z,56.0
2019-03-22T05:39:33.008Z,136.0
2019-03-22T05:50:19.919Z,276.0
2019-03-22T06:01:08.342Z,500.0
2019-03-22T06:11:56.492Z,664.0
2019-03-22T06:22:16.475Z,932.0
2019-03-22T06:32:30.524Z,1352.0
2019-03-22T06:42:44.803Z,1760.0
2019-03-22T06:52:59.165Z,1956.0
2019-03-22T07:03:12.962Z,2188.0
2019-03-22T07:16:20.935Z,3960.0
2019-03-22T07:27:53.631Z,4800.0
2019-03-22T07:49:06.709Z,6764.0
2019-03-22T07:59:23.125Z,9516.0
2019-03-22T08:10:12.116Z,18560.0
2019-03-22T08:20:59.495Z,32992.0
2019-03-22T08:31:17.731Z,38848.0
2019-03-22T08:41:38.873Z,42720.0
2019-03-22T08:53:21.721Z,47488.0
2019-03-22T09:04:18.196Z,53824.0
2019-03-22T09:14:35.463Z,58176.0
2019-03-22T09:25:26.852Z,58560.0
2019-03-22T09:36:16.917Z,56064.0
2019-03-22T09:47:06.019Z,68864.0
2019-03-22T09:57:56.910Z,69920.0
2019-03-22T10:08:48.347Z,67200.0
2019-03-22T10:19:36.208Z,72352.0
2019-03-22T10:29:54.571Z,74848.0
2019-03-22T10:40:48.600Z,76320.0
2019-03-22T10:51:06.572Z,80128.0
2019-03-22T11:02:16.702Z,80096.0
2019-03-22T11:13:16.850Z,82592.0
2019-03-22T11:23:34.277Z,77344.0
2019-03-22T11:34:24.133Z,75584.0
2019-03-22T11:44:41.729Z,76448.0
2019-03-22T11:55:44.099Z,75200.0
2019-03-22T12:06:39.058Z,78688.0
2019-03-22T12:17:31.327Z,76736.0
2019-03-22T12:30:27.516Z,73088.0
2019-03-22T12:48:16.754Z,75968.0
2019-03-22T12:58:36.100Z,81632.0
2019-03-22T13:08:57.118Z,71776.0
2019-03-22T13:19:49.135Z,75264.0
2019-03-22T13:30:42.967Z,66208.0
2019-03-22T13:41:03.198Z,64192.0
2019-03-22T13:52:06.751Z,59584.0
2019-03-22T14:03:02.657Z,56448.0
2019-03-22T14:13:48.877Z,48256.0
2019-03-22T14:24:40.012Z,19616.0
2019-03-22T14:35:33.977Z,18816.0
2019-03-22T14:46:37.424Z,18656.0
2019-03-22T14:57:29.358Z,17440.0
2019-03-22T15:08:21.508Z,16384.0
2019-03-22T15:18:36.754Z,15488.0
2019-03-22T15:29:57.618Z,27616.0
2019-03-22T15:40:15.392Z,20576.0
2019-03-22T15:51:11.162Z,10804.0
2019-03-22T16:01:59.081Z,5660.0
2019-03-22T16:12:18.677Z,7568.0
2019-03-22T16:22:38.509Z,4292.0
2019-03-22T16:33:30.311Z,5052.0
2019-03-22T16:44:21.589Z,3688.0
2019-03-22T16:55:09.130Z,2464.0
2019-03-22T17:05:56.650Z,1868.0
2019-03-22T17:16:46.712Z,1260.0
2019-03-22T17:27:49.378Z,840.0
2019-03-22T17:38:45.540Z,412.0
2019-03-22T17:49:47.774Z,160.0
2019-03-22T18:01:24.976Z,40.0
2019-03-22T18:11:41.147Z,4.0
2019-03-22T18:21:58.347Z,0.0
2019-03-22T18:32:41.004Z,0.0
2019-03-22T18:43:00.012Z,0.0
2019-03-22T18:53:16.642Z,0.0
2019-03-22T19:04:23.020Z,0.0
2019-03-22T19:15:03.949Z,0.0
2019-03-22T19:30:12.195Z,0.0
2019-03-22T19:41:22.434Z,0.0
2019-03-22T19:52:48.625Z,0.0
2019-03-22T20:03:41.030Z,0.0
2019-03-22T20:16:01.809Z,0.0
2019-03-22T20:49:55.387Z,0.0
2019-03-22T21:04:09.781Z,0.0
2019-03-22T21:24:23.321Z,0.0
2019-03-22T21:39:13.133Z,0.0
2019-03-22T22:19:34.713Z,0.0
2019-03-22T22:29:53.935Z,0.0
2019-03-22T22:41:20.871Z,0.0
2019-03-22T22:51:54.794Z,0.0
2019-03-22T23:02:10.933Z,0.0
2019-03-22T23:12:56.540Z,0.0
2019-03-22T23:24:22.396Z,0.0
2019-03-22T23:34:37.683Z,0.0
2019-03-22T23:44:51.257Z,0.0
2019-03-22T23:56:55.328Z,0.0
